sensor_id;sensor_type;location;lat;lon;timestamp;temperature;humidity
5779;DHT22;2916;49.798;10.022;2022-10-16T00:01:20;16.10;99.90
5779;DHT22;2916;49.798;10.022;2022-10-16T00:03:49;16.10;99.90
5779;DHT22;2916;49.798;10.022;2022-10-16T00:06:19;16.10;99.90
5779;DHT22;2916;49.798;10.022;2022-10-16T00:08:47;16.10;99.90
5779;DHT22;2916;49.798;10.022;2022-10-16T00:11:19;16.00;99.90
5779;DHT22;2916;49.798;10.022;2022-10-16T00:13:48;16.00;99.90
5779;DHT22;2916;49.798;10.022;2022-10-16T00:16:18;16.10;99.90
5779;DHT22;2916;49.798;10.022;2022-10-16T00:18:46;16.10;99.90
5779;DHT22;2916;49.798;10.022;2022-10-16T00:21:16;16.00;99.90
5779;DHT22;2916;49.798;10.022;2022-10-16T00:23:45;16.00;99.90
5779;DHT22;2916;49.798;10.022;2022-10-16T00:26:14;16.10;99.90
5779;DHT22;2916;49.798;10.022;2022-10-16T00:28:45;16.00;99.90
5779;DHT22;2916;49.798;10.022;2022-10-16T00:31:12;16.10;99.90
5779;DHT22;2916;49.798;10.022;2022-10-16T00:33:40;16.00;99.90
5779;DHT22;2916;49.798;10.022;2022-10-16T00:36:11;16.10;99.90
5779;DHT22;2916;49.798;10.022;2022-10-16T00:38:41;16.00;99.90
5779;DHT22;2916;49.798;10.022;2022-10-16T00:41:11;16.00;99.90
5779;DHT22;2916;49.798;10.022;2022-10-16T00:43:42;16.00;99.90
5779;DHT22;2916;49.798;10.022;2022-10-16T00:46:16;16.10;99.90
5779;DHT22;2916;49.798;10.022;2022-10-16T00:48:49;16.10;99.90
5779;DHT22;2916;49.798;10.022;2022-10-16T00:51:24;16.10;99.90
5779;DHT22;2916;49.798;10.022;2022-10-16T00:53:55;16.10;99.90
5779;DHT22;2916;49.798;10.022;2022-10-16T00:56:23;16.10;99.90
5779;DHT22;2916;49.798;10.022;2022-10-16T00:58:51;16.00;99.90
5779;DHT22;2916;49.798;10.022;2022-10-16T01:01:19;16.00;99.90
5779;DHT22;2916;49.798;10.022;2022-10-16T01:03:46;16.00;99.90
5779;DHT22;2916;49.798;10.022;2022-10-16T01:06:23;16.00;99.90
5779;DHT22;2916;49.798;10.022;2022-10-16T01:09:01;16.00;99.90
5779;DHT22;2916;49.798;10.022;2022-10-16T01:11:44;16.00;99.90
5779;DHT22;2916;49.798;10.022;2022-10-16T01:14:23;16.00;99.90
5779;DHT22;2916;49.798;10.022;2022-10-16T01:17:01;16.00;99.90
5779;DHT22;2916;49.798;10.022;2022-10-16T01:19:44;16.00;99.90
5779;DHT22;2916;49.798;10.022;2022-10-16T01:22:36;16.00;99.90
5779;DHT22;2916;49.798;10.022;2022-10-16T01:25:12;16.00;99.90
5779;DHT22;2916;49.798;10.022;2022-10-16T01:27:50;16.00;99.90
5779;DHT22;2916;49.798;10.022;2022-10-16T01:30:21;16.00;99.90
5779;DHT22;2916;49.798;10.022;2022-10-16T01:32:56;16.00;99.90
5779;DHT22;2916;49.798;10.022;2022-10-16T01:35:27;16.10;99.90
5779;DHT22;2916;49.798;10.022;2022-10-16T01:38:03;16.10;99.90
5779;DHT22;2916;49.798;10.022;2022-10-16T01:40:34;16.10;99.90
5779;DHT22;2916;49.798;10.022;2022-10-16T01:43:08;16.00;99.90
5779;DHT22;2916;49.798;10.022;2022-10-16T01:45:41;16.10;99.90
5779;DHT22;2916;49.798;10.022;2022-10-16T01:48:12;16.10;99.90
5779;DHT22;2916;49.798;10.022;2022-10-16T01:50:44;16.00;99.90
5779;DHT22;2916;49.798;10.022;2022-10-16T01:53:19;16.00;99.90
5779;DHT22;2916;49.798;10.022;2022-10-16T01:55:47;16.00;99.90
5779;DHT22;2916;49.798;10.022;2022-10-16T01:58:19;16.00;99.90
5779;DHT22;2916;49.798;10.022;2022-10-16T02:00:48;16.00;99.90
5779;DHT22;2916;49.798;10.022;2022-10-16T02:03:18;16.00;99.90
5779;DHT22;2916;49.798;10.022;2022-10-16T02:05:48;15.90;99.90
5779;DHT22;2916;49.798;10.022;2022-10-16T02:08:19;16.00;99.90
5779;DHT22;2916;49.798;10.022;2022-10-16T02:10:47;16.00;99.90
5779;DHT22;2916;49.798;10.022;2022-10-16T02:13:18;16.00;99.90
5779;DHT22;2916;49.798;10.022;2022-10-16T02:15:52;15.90;99.90
5779;DHT22;2916;49.798;10.022;2022-10-16T02:18:20;16.00;99.90
5779;DHT22;2916;49.798;10.022;2022-10-16T02:20:51;16.00;99.90
5779;DHT22;2916;49.798;10.022;2022-10-16T02:23:27;15.90;99.90
5779;DHT22;2916;49.798;10.022;2022-10-16T02:26:03;15.80;99.90
5779;DHT22;2916;49.798;10.022;2022-10-16T02:28:41;15.80;99.90
5779;DHT22;2916;49.798;10.022;2022-10-16T02:31:15;15.90;99.90
5779;DHT22;2916;49.798;10.022;2022-10-16T02:33:51;15.80;99.90
5779;DHT22;2916;49.798;10.022;2022-10-16T02:36:19;15.90;99.90
5779;DHT22;2916;49.798;10.022;2022-10-16T02:38:48;15.90;99.90
5779;DHT22;2916;49.798;10.022;2022-10-16T02:41:15;15.90;99.90
5779;DHT22;2916;49.798;10.022;2022-10-16T02:43:44;16.00;99.90
5779;DHT22;2916;49.798;10.022;2022-10-16T02:46:11;16.00;99.90
5779;DHT22;2916;49.798;10.022;2022-10-16T02:48:38;16.10;99.90
5779;DHT22;2916;49.798;10.022;2022-10-16T02:51:06;16.10;99.90
5779;DHT22;2916;49.798;10.022;2022-10-16T02:53:33;16.10;99.90
5779;DHT22;2916;49.798;10.022;2022-10-16T02:56:00;16.10;99.90
5779;DHT22;2916;49.798;10.022;2022-10-16T02:58:27;16.10;99.90
5779;DHT22;2916;49.798;10.022;2022-10-16T03:00:56;16.10;99.90
5779;DHT22;2916;49.798;10.022;2022-10-16T03:03:23;16.00;99.90
5779;DHT22;2916;49.798;10.022;2022-10-16T03:05:50;16.10;99.90
5779;DHT22;2916;49.798;10.022;2022-10-16T03:08:17;16.10;99.90
5779;DHT22;2916;49.798;10.022;2022-10-16T03:10:48;16.00;99.90
5779;DHT22;2916;49.798;10.022;2022-10-16T03:13:16;16.10;99.90
5779;DHT22;2916;49.798;10.022;2022-10-16T03:15:43;16.10;99.90
5779;DHT22;2916;49.798;10.022;2022-10-16T03:18:12;16.10;99.90
5779;DHT22;2916;49.798;10.022;2022-10-16T03:20:39;16.10;99.90
5779;DHT22;2916;49.798;10.022;2022-10-16T03:23:06;16.00;99.90
5779;DHT22;2916;49.798;10.022;2022-10-16T03:25:34;16.00;99.90
5779;DHT22;2916;49.798;10.022;2022-10-16T03:28:01;16.10;99.90
5779;DHT22;2916;49.798;10.022;2022-10-16T03:30:28;16.10;99.90
5779;DHT22;2916;49.798;10.022;2022-10-16T03:32:56;16.00;99.90
5779;DHT22;2916;49.798;10.022;2022-10-16T03:35:24;16.00;99.90
5779;DHT22;2916;49.798;10.022;2022-10-16T03:37:51;16.00;99.90
5779;DHT22;2916;49.798;10.022;2022-10-16T03:40:18;16.00;99.90
5779;DHT22;2916;49.798;10.022;2022-10-16T03:42:46;16.00;99.90
5779;DHT22;2916;49.798;10.022;2022-10-16T03:45:13;16.00;99.90
5779;DHT22;2916;49.798;10.022;2022-10-16T03:47:40;15.90;99.90
5779;DHT22;2916;49.798;10.022;2022-10-16T03:50:08;15.90;99.90
5779;DHT22;2916;49.798;10.022;2022-10-16T03:52:37;16.00;99.90
5779;DHT22;2916;49.798;10.022;2022-10-16T03:55:05;16.00;99.90
5779;DHT22;2916;49.798;10.022;2022-10-16T03:57:33;16.00;99.90
5779;DHT22;2916;49.798;10.022;2022-10-16T04:00:00;16.00;99.90
5779;DHT22;2916;49.798;10.022;2022-10-16T04:02:27;16.00;99.90
5779;DHT22;2916;49.798;10.022;2022-10-16T04:04:54;16.00;99.90
5779;DHT22;2916;49.798;10.022;2022-10-16T04:07:21;16.00;99.90
5779;DHT22;2916;49.798;10.022;2022-10-16T04:09:50;16.00;99.90
5779;DHT22;2916;49.798;10.022;2022-10-16T04:12:17;16.00;99.90
5779;DHT22;2916;49.798;10.022;2022-10-16T04:14:44;16.00;99.90
5779;DHT22;2916;49.798;10.022;2022-10-16T04:17:11;16.00;99.90
5779;DHT22;2916;49.798;10.022;2022-10-16T04:19:38;16.00;99.90
5779;DHT22;2916;49.798;10.022;2022-10-16T04:22:06;16.00;99.90
5779;DHT22;2916;49.798;10.022;2022-10-16T04:24:33;16.00;99.90
5779;DHT22;2916;49.798;10.022;2022-10-16T04:27:01;16.00;99.90
5779;DHT22;2916;49.798;10.022;2022-10-16T04:29:29;16.00;99.90
5779;DHT22;2916;49.798;10.022;2022-10-16T04:31:56;16.00;99.90
5779;DHT22;2916;49.798;10.022;2022-10-16T04:34:23;16.10;99.90
5779;DHT22;2916;49.798;10.022;2022-10-16T04:36:50;16.10;99.90
5779;DHT22;2916;49.798;10.022;2022-10-16T04:39:17;16.10;99.90
5779;DHT22;2916;49.798;10.022;2022-10-16T04:41:45;16.10;99.90
5779;DHT22;2916;49.798;10.022;2022-10-16T04:44:13;16.10;99.90
5779;DHT22;2916;49.798;10.022;2022-10-16T04:46:40;16.10;99.90
5779;DHT22;2916;49.798;10.022;2022-10-16T04:49:07;16.10;99.90
5779;DHT22;2916;49.798;10.022;2022-10-16T04:51:34;16.00;99.90
5779;DHT22;2916;49.798;10.022;2022-10-16T04:54:02;16.10;99.90
5779;DHT22;2916;49.798;10.022;2022-10-16T04:56:29;16.10;99.90
5779;DHT22;2916;49.798;10.022;2022-10-16T04:58:56;16.10;99.90
5779;DHT22;2916;49.798;10.022;2022-10-16T05:01:24;16.10;99.90
5779;DHT22;2916;49.798;10.022;2022-10-16T05:03:52;16.10;99.90
5779;DHT22;2916;49.798;10.022;2022-10-16T05:06:19;16.10;99.90
5779;DHT22;2916;49.798;10.022;2022-10-16T05:08:46;16.10;99.90
5779;DHT22;2916;49.798;10.022;2022-10-16T05:11:13;16.20;99.90
5779;DHT22;2916;49.798;10.022;2022-10-16T05:13:40;16.20;99.90
5779;DHT22;2916;49.798;10.022;2022-10-16T05:16:07;16.20;99.90
5779;DHT22;2916;49.798;10.022;2022-10-16T05:18:35;16.20;99.90
5779;DHT22;2916;49.798;10.022;2022-10-16T05:21:03;16.20;99.90
5779;DHT22;2916;49.798;10.022;2022-10-16T05:23:31;16.20;99.90
5779;DHT22;2916;49.798;10.022;2022-10-16T05:25:59;16.20;99.90
5779;DHT22;2916;49.798;10.022;2022-10-16T05:28:27;16.20;99.90
5779;DHT22;2916;49.798;10.022;2022-10-16T05:30:55;16.20;99.90
5779;DHT22;2916;49.798;10.022;2022-10-16T05:33:24;16.20;99.90
5779;DHT22;2916;49.798;10.022;2022-10-16T05:35:53;16.20;99.90
5779;DHT22;2916;49.798;10.022;2022-10-16T05:38:20;16.20;99.90
5779;DHT22;2916;49.798;10.022;2022-10-16T05:40:51;16.20;99.90
5779;DHT22;2916;49.798;10.022;2022-10-16T05:43:19;16.20;99.90
5779;DHT22;2916;49.798;10.022;2022-10-16T05:45:54;16.20;99.90
5779;DHT22;2916;49.798;10.022;2022-10-16T05:48:21;16.20;99.90
5779;DHT22;2916;49.798;10.022;2022-10-16T05:50:57;16.20;99.90
5779;DHT22;2916;49.798;10.022;2022-10-16T05:53:26;16.30;99.90
5779;DHT22;2916;49.798;10.022;2022-10-16T05:55:54;16.30;99.90
5779;DHT22;2916;49.798;10.022;2022-10-16T05:58:22;16.30;99.90
5779;DHT22;2916;49.798;10.022;2022-10-16T06:00:54;16.30;99.90
5779;DHT22;2916;49.798;10.022;2022-10-16T06:03:22;16.30;99.90
5779;DHT22;2916;49.798;10.022;2022-10-16T06:05:50;16.30;99.90
5779;DHT22;2916;49.798;10.022;2022-10-16T06:08:19;16.30;99.90
5779;DHT22;2916;49.798;10.022;2022-10-16T06:10:47;16.30;99.90
5779;DHT22;2916;49.798;10.022;2022-10-16T06:13:14;16.40;99.90
5779;DHT22;2916;49.798;10.022;2022-10-16T06:15:42;16.40;99.90
5779;DHT22;2916;49.798;10.022;2022-10-16T06:18:09;16.40;99.90
5779;DHT22;2916;49.798;10.022;2022-10-16T06:20:37;16.40;99.90
5779;DHT22;2916;49.798;10.022;2022-10-16T06:23:04;16.40;99.90
5779;DHT22;2916;49.798;10.022;2022-10-16T06:25:33;16.40;99.90
5779;DHT22;2916;49.798;10.022;2022-10-16T06:28:00;16.40;99.90
5779;DHT22;2916;49.798;10.022;2022-10-16T06:30:27;16.40;99.90
5779;DHT22;2916;49.798;10.022;2022-10-16T06:32:54;16.40;99.90
5779;DHT22;2916;49.798;10.022;2022-10-16T06:35:21;16.40;99.90
5779;DHT22;2916;49.798;10.022;2022-10-16T06:37:49;16.40;99.90
5779;DHT22;2916;49.798;10.022;2022-10-16T06:40:16;16.40;99.90
5779;DHT22;2916;49.798;10.022;2022-10-16T06:42:45;16.40;99.90
5779;DHT22;2916;49.798;10.022;2022-10-16T06:45:12;16.50;99.90
5779;DHT22;2916;49.798;10.022;2022-10-16T06:47:39;16.40;99.90
5779;DHT22;2916;49.798;10.022;2022-10-16T06:50:07;16.40;99.90
5779;DHT22;2916;49.798;10.022;2022-10-16T06:52:34;16.40;99.90
5779;DHT22;2916;49.798;10.022;2022-10-16T06:55:02;16.40;99.90
5779;DHT22;2916;49.798;10.022;2022-10-16T06:57:32;16.50;99.90
5779;DHT22;2916;49.798;10.022;2022-10-16T07:00:01;16.50;99.90
5779;DHT22;2916;49.798;10.022;2022-10-16T07:02:28;16.50;99.90
5779;DHT22;2916;49.798;10.022;2022-10-16T07:04:55;16.60;99.90
5779;DHT22;2916;49.798;10.022;2022-10-16T07:07:22;16.60;99.90
5779;DHT22;2916;49.798;10.022;2022-10-16T07:09:50;16.60;99.90
5779;DHT22;2916;49.798;10.022;2022-10-16T07:12:17;16.70;99.90
5779;DHT22;2916;49.798;10.022;2022-10-16T07:14:44;16.70;99.90
5779;DHT22;2916;49.798;10.022;2022-10-16T07:17:13;16.60;99.90
5779;DHT22;2916;49.798;10.022;2022-10-16T07:19:40;16.70;99.90
5779;DHT22;2916;49.798;10.022;2022-10-16T07:22:07;16.70;99.90
5779;DHT22;2916;49.798;10.022;2022-10-16T07:24:34;16.80;99.90
5779;DHT22;2916;49.798;10.022;2022-10-16T07:27:01;16.70;99.90
5779;DHT22;2916;49.798;10.022;2022-10-16T07:29:28;16.70;99.90
5779;DHT22;2916;49.798;10.022;2022-10-16T07:31:56;16.60;99.90
5779;DHT22;2916;49.798;10.022;2022-10-16T07:34:24;16.70;99.90
5779;DHT22;2916;49.798;10.022;2022-10-16T07:36:52;16.70;99.90
5779;DHT22;2916;49.798;10.022;2022-10-16T07:39:19;16.70;99.90
5779;DHT22;2916;49.798;10.022;2022-10-16T07:41:46;16.70;99.90
5779;DHT22;2916;49.798;10.022;2022-10-16T07:44:13;16.60;99.90
5779;DHT22;2916;49.798;10.022;2022-10-16T07:46:40;16.60;99.90
5779;DHT22;2916;49.798;10.022;2022-10-16T07:49:08;16.60;99.90
5779;DHT22;2916;49.798;10.022;2022-10-16T07:51:37;16.60;99.90
5779;DHT22;2916;49.798;10.022;2022-10-16T07:54:04;16.70;99.90
5779;DHT22;2916;49.798;10.022;2022-10-16T07:56:32;16.70;99.90
5779;DHT22;2916;49.798;10.022;2022-10-16T07:58:59;16.70;99.90
5779;DHT22;2916;49.798;10.022;2022-10-16T08:01:26;16.80;99.90
5779;DHT22;2916;49.798;10.022;2022-10-16T08:03:54;16.80;99.90
5779;DHT22;2916;49.798;10.022;2022-10-16T08:06:21;16.90;99.90
5779;DHT22;2916;49.798;10.022;2022-10-16T08:08:50;16.90;99.90
5779;DHT22;2916;49.798;10.022;2022-10-16T08:11:17;16.90;99.90
5779;DHT22;2916;49.798;10.022;2022-10-16T08:13:45;16.90;99.90
5779;DHT22;2916;49.798;10.022;2022-10-16T08:16:12;16.90;99.90
5779;DHT22;2916;49.798;10.022;2022-10-16T08:18:40;16.80;99.90
5779;DHT22;2916;49.798;10.022;2022-10-16T08:21:12;16.90;99.90
5779;DHT22;2916;49.798;10.022;2022-10-16T08:23:41;16.90;99.90
5779;DHT22;2916;49.798;10.022;2022-10-16T08:26:11;17.00;99.90
5779;DHT22;2916;49.798;10.022;2022-10-16T08:28:39;17.10;99.90
5779;DHT22;2916;49.798;10.022;2022-10-16T08:31:08;17.10;99.90
5779;DHT22;2916;49.798;10.022;2022-10-16T08:33:36;17.10;99.90
5779;DHT22;2916;49.798;10.022;2022-10-16T08:36:04;17.10;99.90
5779;DHT22;2916;49.798;10.022;2022-10-16T08:38:32;17.20;99.90
5779;DHT22;2916;49.798;10.022;2022-10-16T08:41:17;17.10;99.90
5779;DHT22;2916;49.798;10.022;2022-10-16T08:44:05;17.20;99.90
5779;DHT22;2916;49.798;10.022;2022-10-16T08:46:56;17.30;99.90
5779;DHT22;2916;49.798;10.022;2022-10-16T08:49:35;17.40;99.90
5779;DHT22;2916;49.798;10.022;2022-10-16T08:52:11;17.30;99.90
5779;DHT22;2916;49.798;10.022;2022-10-16T08:54:43;17.40;99.90
5779;DHT22;2916;49.798;10.022;2022-10-16T08:57:19;17.60;99.90
5779;DHT22;2916;49.798;10.022;2022-10-16T08:59:48;17.60;99.90
5779;DHT22;2916;49.798;10.022;2022-10-16T09:02:24;17.70;99.90
5779;DHT22;2916;49.798;10.022;2022-10-16T09:05:08;17.70;99.90
5779;DHT22;2916;49.798;10.022;2022-10-16T09:07:57;17.80;99.90
5779;DHT22;2916;49.798;10.022;2022-10-16T09:10:38;17.80;99.90
5779;DHT22;2916;49.798;10.022;2022-10-16T09:13:22;17.80;99.90
5779;DHT22;2916;49.798;10.022;2022-10-16T09:16:01;17.90;99.90
5779;DHT22;2916;49.798;10.022;2022-10-16T09:18:44;17.90;99.90
5779;DHT22;2916;49.798;10.022;2022-10-16T09:21:21;18.00;99.90
5779;DHT22;2916;49.798;10.022;2022-10-16T09:23:52;18.00;99.90
5779;DHT22;2916;49.798;10.022;2022-10-16T09:26:23;18.00;99.90
5779;DHT22;2916;49.798;10.022;2022-10-16T09:28:53;18.10;99.90
5779;DHT22;2916;49.798;10.022;2022-10-16T09:31:21;18.10;99.90
5779;DHT22;2916;49.798;10.022;2022-10-16T09:33:52;18.20;99.90
5779;DHT22;2916;49.798;10.022;2022-10-16T09:36:23;18.30;99.90
5779;DHT22;2916;49.798;10.022;2022-10-16T09:39:03;18.40;99.90
5779;DHT22;2916;49.798;10.022;2022-10-16T09:41:34;18.40;99.90
5779;DHT22;2916;49.798;10.022;2022-10-16T09:44:06;18.50;99.90
5779;DHT22;2916;49.798;10.022;2022-10-16T09:46:45;18.50;99.90
5779;DHT22;2916;49.798;10.022;2022-10-16T09:49:21;18.40;99.90
5779;DHT22;2916;49.798;10.022;2022-10-16T09:51:51;18.40;99.90
5779;DHT22;2916;49.798;10.022;2022-10-16T09:54:29;18.40;99.90
5779;DHT22;2916;49.798;10.022;2022-10-16T09:57:05;18.50;99.90
5779;DHT22;2916;49.798;10.022;2022-10-16T09:59:34;18.60;99.90
5779;DHT22;2916;49.798;10.022;2022-10-16T10:02:15;18.50;99.90
5779;DHT22;2916;49.798;10.022;2022-10-16T10:04:49;18.40;99.90
5779;DHT22;2916;49.798;10.022;2022-10-16T10:07:24;18.40;99.90
5779;DHT22;2916;49.798;10.022;2022-10-16T10:09:53;18.40;99.90
5779;DHT22;2916;49.798;10.022;2022-10-16T10:12:24;18.50;99.90
5779;DHT22;2916;49.798;10.022;2022-10-16T10:14:56;18.50;99.90
5779;DHT22;2916;49.798;10.022;2022-10-16T10:17:25;18.60;99.90
5779;DHT22;2916;49.798;10.022;2022-10-16T10:19:55;18.70;99.90
5779;DHT22;2916;49.798;10.022;2022-10-16T10:22:29;18.70;99.90
5779;DHT22;2916;49.798;10.022;2022-10-16T10:25:21;18.70;99.90
5779;DHT22;2916;49.798;10.022;2022-10-16T10:28:38;18.80;99.90
5779;DHT22;2916;49.798;10.022;2022-10-16T10:31:21;18.80;99.90
5779;DHT22;2916;49.798;10.022;2022-10-16T10:33:59;18.80;99.90
5779;DHT22;2916;49.798;10.022;2022-10-16T10:36:34;18.70;99.90
5779;DHT22;2916;49.798;10.022;2022-10-16T10:39:07;18.60;99.90
5779;DHT22;2916;49.798;10.022;2022-10-16T10:42:08;18.40;99.90
5779;DHT22;2916;49.798;10.022;2022-10-16T10:45:00;18.30;99.90
5779;DHT22;2916;49.798;10.022;2022-10-16T10:47:50;18.20;99.90
5779;DHT22;2916;49.798;10.022;2022-10-16T10:50:34;18.00;99.90
5779;DHT22;2916;49.798;10.022;2022-10-16T10:53:18;18.00;99.90
5779;DHT22;2916;49.798;10.022;2022-10-16T10:56:06;18.10;99.90
5779;DHT22;2916;49.798;10.022;2022-10-16T11:01:55;18.10;99.90
5779;DHT22;2916;49.798;10.022;2022-10-16T11:04:54;18.10;99.90
5779;DHT22;2916;49.798;10.022;2022-10-16T11:07:47;18.30;99.90
5779;DHT22;2916;49.798;10.022;2022-10-16T11:10:21;18.50;99.90
5779;DHT22;2916;49.798;10.022;2022-10-16T11:12:57;18.60;99.90
5779;DHT22;2916;49.798;10.022;2022-10-16T11:15:33;18.80;99.90
5779;DHT22;2916;49.798;10.022;2022-10-16T11:18:06;18.80;99.90
5779;DHT22;2916;49.798;10.022;2022-10-16T11:20:42;19.10;99.90
5779;DHT22;2916;49.798;10.022;2022-10-16T11:23:16;19.00;99.90
5779;DHT22;2916;49.798;10.022;2022-10-16T11:25:48;19.20;99.90
5779;DHT22;2916;49.798;10.022;2022-10-16T11:28:18;19.20;99.90
5779;DHT22;2916;49.798;10.022;2022-10-16T11:30:50;19.30;99.90
5779;DHT22;2916;49.798;10.022;2022-10-16T11:33:27;19.30;99.90
5779;DHT22;2916;49.798;10.022;2022-10-16T11:36:06;19.40;99.90
5779;DHT22;2916;49.798;10.022;2022-10-16T11:38:45;19.30;99.90
5779;DHT22;2916;49.798;10.022;2022-10-16T11:41:26;19.40;99.90
5779;DHT22;2916;49.798;10.022;2022-10-16T11:44:14;19.50;99.90
5779;DHT22;2916;49.798;10.022;2022-10-16T11:46:57;19.60;99.90
5779;DHT22;2916;49.798;10.022;2022-10-16T11:49:31;19.70;99.90
5779;DHT22;2916;49.798;10.022;2022-10-16T11:52:05;20.00;99.90
5779;DHT22;2916;49.798;10.022;2022-10-16T11:54:45;19.80;99.90
5779;DHT22;2916;49.798;10.022;2022-10-16T11:57:20;19.90;99.90
5779;DHT22;2916;49.798;10.022;2022-10-16T11:59:54;19.90;99.90
5779;DHT22;2916;49.798;10.022;2022-10-16T12:02:49;20.10;99.90
5779;DHT22;2916;49.798;10.022;2022-10-16T12:05:28;20.10;99.90
5779;DHT22;2916;49.798;10.022;2022-10-16T12:08:10;20.20;99.90
5779;DHT22;2916;49.798;10.022;2022-10-16T12:10:40;20.20;99.90
5779;DHT22;2916;49.798;10.022;2022-10-16T12:13:32;20.10;99.90
5779;DHT22;2916;49.798;10.022;2022-10-16T12:16:21;20.30;99.90
5779;DHT22;2916;49.798;10.022;2022-10-16T12:18:50;20.30;99.90
5779;DHT22;2916;49.798;10.022;2022-10-16T12:21:36;20.30;99.90
5779;DHT22;2916;49.798;10.022;2022-10-16T12:24:05;20.40;99.90
5779;DHT22;2916;49.798;10.022;2022-10-16T12:26:46;20.50;99.90
5779;DHT22;2916;49.798;10.022;2022-10-16T12:29:23;20.60;99.90
5779;DHT22;2916;49.798;10.022;2022-10-16T12:31:58;20.70;99.90
5779;DHT22;2916;49.798;10.022;2022-10-16T12:34:28;20.80;99.90
5779;DHT22;2916;49.798;10.022;2022-10-16T12:37:10;20.90;99.90
5779;DHT22;2916;49.798;10.022;2022-10-16T12:39:42;20.90;99.90
5779;DHT22;2916;49.798;10.022;2022-10-16T12:42:31;20.90;99.90
5779;DHT22;2916;49.798;10.022;2022-10-16T12:45:01;20.90;99.90
5779;DHT22;2916;49.798;10.022;2022-10-16T12:47:48;20.90;99.90
5779;DHT22;2916;49.798;10.022;2022-10-16T12:50:26;21.00;99.90
5779;DHT22;2916;49.798;10.022;2022-10-16T12:52:57;21.00;99.90
5779;DHT22;2916;49.798;10.022;2022-10-16T12:55:26;21.00;99.90
5779;DHT22;2916;49.798;10.022;2022-10-16T12:58:15;21.10;99.90
5779;DHT22;2916;49.798;10.022;2022-10-16T13:01:02;21.10;99.90
5779;DHT22;2916;49.798;10.022;2022-10-16T13:03:51;21.20;99.90
5779;DHT22;2916;49.798;10.022;2022-10-16T13:06:35;21.30;99.90
5779;DHT22;2916;49.798;10.022;2022-10-16T13:09:23;21.20;99.90
5779;DHT22;2916;49.798;10.022;2022-10-16T13:12:24;21.20;99.90
5779;DHT22;2916;49.798;10.022;2022-10-16T13:15:16;21.20;99.90
5779;DHT22;2916;49.798;10.022;2022-10-16T13:18:00;21.10;99.90
5779;DHT22;2916;49.798;10.022;2022-10-16T13:20:36;21.20;99.90
5779;DHT22;2916;49.798;10.022;2022-10-16T13:23:16;21.10;99.90
5779;DHT22;2916;49.798;10.022;2022-10-16T13:26:00;21.00;99.90
5779;DHT22;2916;49.798;10.022;2022-10-16T13:28:39;21.00;99.90
5779;DHT22;2916;49.798;10.022;2022-10-16T13:31:14;20.90;99.90
5779;DHT22;2916;49.798;10.022;2022-10-16T13:33:48;20.90;99.90
5779;DHT22;2916;49.798;10.022;2022-10-16T13:36:22;20.90;99.90
5779;DHT22;2916;49.798;10.022;2022-10-16T13:39:01;20.80;99.90
5779;DHT22;2916;49.798;10.022;2022-10-16T13:41:37;20.80;99.90
5779;DHT22;2916;49.798;10.022;2022-10-16T13:44:14;20.70;99.90
5779;DHT22;2916;49.798;10.022;2022-10-16T13:46:45;20.70;99.90
5779;DHT22;2916;49.798;10.022;2022-10-16T13:49:24;20.70;99.90
5779;DHT22;2916;49.798;10.022;2022-10-16T13:51:55;20.70;99.90
5779;DHT22;2916;49.798;10.022;2022-10-16T13:54:25;20.70;99.90
5779;DHT22;2916;49.798;10.022;2022-10-16T13:56:54;20.80;99.90
5779;DHT22;2916;49.798;10.022;2022-10-16T13:59:25;20.80;99.90
5779;DHT22;2916;49.798;10.022;2022-10-16T14:01:56;20.80;99.90
5779;DHT22;2916;49.798;10.022;2022-10-16T14:04:32;20.80;99.90
5779;DHT22;2916;49.798;10.022;2022-10-16T14:06:59;20.80;99.90
5779;DHT22;2916;49.798;10.022;2022-10-16T14:09:28;20.90;99.90
5779;DHT22;2916;49.798;10.022;2022-10-16T14:11:58;20.90;99.90
5779;DHT22;2916;49.798;10.022;2022-10-16T14:14:34;20.90;99.90
5779;DHT22;2916;49.798;10.022;2022-10-16T14:17:13;20.90;99.90
5779;DHT22;2916;49.798;10.022;2022-10-16T14:19:46;21.00;99.90
5779;DHT22;2916;49.798;10.022;2022-10-16T14:22:30;21.00;99.90
5779;DHT22;2916;49.798;10.022;2022-10-16T14:24:59;21.00;99.90
5779;DHT22;2916;49.798;10.022;2022-10-16T14:27:31;21.10;99.90
5779;DHT22;2916;49.798;10.022;2022-10-16T14:30:20;21.00;99.90
5779;DHT22;2916;49.798;10.022;2022-10-16T14:32:56;21.00;99.90
5779;DHT22;2916;49.798;10.022;2022-10-16T14:35:27;21.10;99.90
5779;DHT22;2916;49.798;10.022;2022-10-16T14:37:57;21.10;99.90
5779;DHT22;2916;49.798;10.022;2022-10-16T14:40:28;21.10;99.90
5779;DHT22;2916;49.798;10.022;2022-10-16T14:42:57;21.10;99.90
5779;DHT22;2916;49.798;10.022;2022-10-16T14:45:28;21.10;99.90
5779;DHT22;2916;49.798;10.022;2022-10-16T14:47:58;21.10;99.90
5779;DHT22;2916;49.798;10.022;2022-10-16T14:50:28;21.10;99.90
5779;DHT22;2916;49.798;10.022;2022-10-16T14:52:55;21.10;99.90
5779;DHT22;2916;49.798;10.022;2022-10-16T14:55:22;21.10;99.90
5779;DHT22;2916;49.798;10.022;2022-10-16T14:57:50;21.10;99.90
5779;DHT22;2916;49.798;10.022;2022-10-16T15:00:19;21.00;99.90
5779;DHT22;2916;49.798;10.022;2022-10-16T15:02:50;21.00;99.90
5779;DHT22;2916;49.798;10.022;2022-10-16T15:05:19;21.00;99.90
5779;DHT22;2916;49.798;10.022;2022-10-16T15:07:49;21.00;99.90
5779;DHT22;2916;49.798;10.022;2022-10-16T15:10:17;21.00;99.90
5779;DHT22;2916;49.798;10.022;2022-10-16T15:12:45;21.00;99.90
5779;DHT22;2916;49.798;10.022;2022-10-16T15:15:24;20.90;99.90
5779;DHT22;2916;49.798;10.022;2022-10-16T15:17:58;20.90;99.90
5779;DHT22;2916;49.798;10.022;2022-10-16T15:20:27;20.80;99.90
5779;DHT22;2916;49.798;10.022;2022-10-16T15:22:56;20.80;99.90
5779;DHT22;2916;49.798;10.022;2022-10-16T15:25:34;20.80;99.90
5779;DHT22;2916;49.798;10.022;2022-10-16T15:28:05;20.80;99.90
5779;DHT22;2916;49.798;10.022;2022-10-16T15:30:33;20.80;99.90
5779;DHT22;2916;49.798;10.022;2022-10-16T15:33:03;20.80;99.90
5779;DHT22;2916;49.798;10.022;2022-10-16T15:35:31;20.60;99.90
5779;DHT22;2916;49.798;10.022;2022-10-16T15:37:58;20.60;99.90
5779;DHT22;2916;49.798;10.022;2022-10-16T15:40:25;20.60;99.90
5779;DHT22;2916;49.798;10.022;2022-10-16T15:42:52;20.60;99.90
5779;DHT22;2916;49.798;10.022;2022-10-16T15:45:20;20.50;99.90
5779;DHT22;2916;49.798;10.022;2022-10-16T15:47:47;20.50;99.90
5779;DHT22;2916;49.798;10.022;2022-10-16T15:50:16;20.40;99.90
5779;DHT22;2916;49.798;10.022;2022-10-16T15:52:43;20.30;99.90
5779;DHT22;2916;49.798;10.022;2022-10-16T15:55:12;20.30;99.90
5779;DHT22;2916;49.798;10.022;2022-10-16T15:57:40;20.30;99.90
5779;DHT22;2916;49.798;10.022;2022-10-16T16:00:10;20.20;99.90
5779;DHT22;2916;49.798;10.022;2022-10-16T16:02:40;20.20;99.90
5779;DHT22;2916;49.798;10.022;2022-10-16T16:05:08;20.20;99.90
5779;DHT22;2916;49.798;10.022;2022-10-16T16:07:38;20.20;99.90
5779;DHT22;2916;49.798;10.022;2022-10-16T16:10:08;20.00;99.90
5779;DHT22;2916;49.798;10.022;2022-10-16T16:12:37;20.00;99.90
5779;DHT22;2916;49.798;10.022;2022-10-16T16:15:06;20.00;99.90
5779;DHT22;2916;49.798;10.022;2022-10-16T16:17:35;19.90;99.90
5779;DHT22;2916;49.798;10.022;2022-10-16T16:20:04;19.80;99.90